createdAt,value
2023-11-15T00:01:49.114Z,9.37
2023-11-15T00:04:51.909Z,9.27
2023-11-15T00:07:56.760Z,9.26
2023-11-15T00:10:59.815Z,9.24
2023-11-15T00:14:02.189Z,9.17
2023-11-15T00:17:05.163Z,9.23
2023-11-15T00:20:09.418Z,9.21
2023-11-15T00:23:12.284Z,9.23
2023-11-15T00:26:15.264Z,9.25
2023-11-15T00:29:19.233Z,9.21
2023-11-15T00:32:24.604Z,9.15
2023-11-15T00:35:27.656Z,9.22
2023-11-15T00:38:30.310Z,9.13
2023-11-15T00:41:33.477Z,9.09
2023-11-15T00:44:36.092Z,9.08
2023-11-15T00:47:39.309Z,9.05
2023-11-15T00:50:41.686Z,9.06
2023-11-15T00:53:44.814Z,9.09
2023-11-15T00:56:47.432Z,9.03
2023-11-15T00:59:54.837Z,8.95
2023-11-15T01:02:58.566Z,8.96
2023-11-15T01:06:02.539Z,8.94
2023-11-15T01:09:09.153Z,8.93
2023-11-15T01:12:11.870Z,8.94
2023-11-15T01:15:14.640Z,8.91
2023-11-15T01:18:17.850Z,8.91
2023-11-15T01:21:20.556Z,8.95
2023-11-15T01:24:23.970Z,8.99
2023-11-15T01:27:26.776Z,8.87
2023-11-15T01:30:29.954Z,8.84
2023-11-15T01:33:32.834Z,8.84
2023-11-15T01:36:36.399Z,8.84
2023-11-15T01:39:38.990Z,8.85
2023-11-15T01:42:42.202Z,8.83
2023-11-15T01:45:48.037Z,8.87
2023-11-15T01:48:51.353Z,8.94
2023-11-15T01:51:54.777Z,8.93
2023-11-15T01:54:57.870Z,8.98
2023-11-15T01:58:00.532Z,8.95
2023-11-15T02:01:05.135Z,8.87
2023-11-15T02:04:09.296Z,8.81
2023-11-15T02:07:12.004Z,8.78
2023-11-15T02:10:15.051Z,8.82
2023-11-15T02:13:27.442Z,8.87
2023-11-15T02:16:30.132Z,8.84
2023-11-15T02:19:32.846Z,8.84
2023-11-15T02:22:43.659Z,8.82
2023-11-15T02:25:45.938Z,8.78
2023-11-15T02:28:48.875Z,8.82
2023-11-15T02:31:51.211Z,8.79
2023-11-15T02:34:56.045Z,8.78
2023-11-15T02:37:59.593Z,8.79
2023-11-15T02:41:02.578Z,8.76
2023-11-15T02:44:05.709Z,8.75
2023-11-15T02:47:08.486Z,8.70
2023-11-15T02:50:11.066Z,8.72
2023-11-15T02:53:13.734Z,8.76
2023-11-15T02:56:16.441Z,8.90
2023-11-15T02:59:20.339Z,8.82
2023-11-15T03:02:23.082Z,8.89
2023-11-15T03:05:26.055Z,8.89
2023-11-15T03:08:28.656Z,8.88
2023-11-15T03:11:31.535Z,8.85
2023-11-15T03:14:34.201Z,8.83
2023-11-15T03:17:37.391Z,8.86
2023-11-15T03:20:39.844Z,8.95
2023-11-15T03:23:42.737Z,8.81
2023-11-15T03:26:45.270Z,8.78
2023-11-15T03:29:48.088Z,8.71
2023-11-15T03:32:50.798Z,8.81
2023-11-15T03:35:53.719Z,8.58
2023-11-15T03:38:56.337Z,8.56
2023-11-15T03:41:59.245Z,8.48
2023-11-15T03:45:01.818Z,8.24
2023-11-15T03:48:05.014Z,8.13
2023-11-15T03:51:08.259Z,8.04
2023-11-15T03:54:11.067Z,8.04
2023-11-15T03:57:13.391Z,8.02
2023-11-15T04:00:18.821Z,7.89
2023-11-15T04:03:23.471Z,7.91
2023-11-15T04:06:28.576Z,7.77
2023-11-15T04:09:34.384Z,7.68
2023-11-15T04:12:38.525Z,7.65
2023-11-15T04:15:41.513Z,7.65
2023-11-15T04:18:45.003Z,7.63
2023-11-15T04:22:04.805Z,7.75
2023-11-15T04:25:14.008Z,7.80
2023-11-15T04:28:17.182Z,7.81
2023-11-15T04:31:19.775Z,7.77
2023-11-15T04:34:22.634Z,7.76
2023-11-15T04:37:25.458Z,7.67
2023-11-15T04:40:29.334Z,7.66
2023-11-15T04:43:31.606Z,7.63
2023-11-15T04:46:37.008Z,7.55
2023-11-15T04:49:41.900Z,7.46
2023-11-15T04:52:44.672Z,7.39
2023-11-15T04:55:47.200Z,7.34
2023-11-15T04:58:50.990Z,7.26
2023-11-15T05:01:53.424Z,7.26
2023-11-15T05:04:56.595Z,7.32
2023-11-15T05:07:59.255Z,7.31
2023-11-15T05:11:03.071Z,7.21
2023-11-15T05:14:05.698Z,7.21
2023-11-15T05:17:10.171Z,7.27
2023-11-15T05:20:12.880Z,7.26
2023-11-15T05:23:15.716Z,7.14
2023-11-15T05:26:18.527Z,7.21
2023-11-15T05:29:21.295Z,7.21
2023-11-15T05:32:23.849Z,7.14
2023-11-15T05:35:27.258Z,7.09
2023-11-15T05:38:29.575Z,7.09
2023-11-15T05:41:32.126Z,7.02
2023-11-15T05:44:34.930Z,6.94
2023-11-15T05:47:39.283Z,6.94
2023-11-15T05:50:41.928Z,7.13
2023-11-15T05:53:48.565Z,7.22
2023-11-15T05:56:51.245Z,7.17
2023-11-15T05:59:54.129Z,7.21
2023-11-15T06:02:57.691Z,7.19
2023-11-15T06:06:00.733Z,7.15
2023-11-15T06:09:05.599Z,7.25
2023-11-15T06:12:08.606Z,7.25
2023-11-15T06:15:14.227Z,7.32
2023-11-15T06:18:17.412Z,7.36
2023-11-15T06:21:21.903Z,7.42
2023-11-15T06:24:25.189Z,7.37
2023-11-15T06:27:28.349Z,7.41
2023-11-15T06:30:31.269Z,7.46
2023-11-15T06:33:34.344Z,7.47
2023-11-15T06:36:37.687Z,7.49
2023-11-15T06:39:42.363Z,7.56
2023-11-15T06:42:45.313Z,7.62
2023-11-15T06:45:47.805Z,7.70
2023-11-15T06:48:51.181Z,7.76
2023-11-15T06:51:53.688Z,7.95
2023-11-15T06:54:57.325Z,8.04
2023-11-15T06:58:01.151Z,8.13
2023-11-15T07:01:06.629Z,8.12
2023-11-15T07:04:09.217Z,8.27
2023-11-15T07:07:12.509Z,8.40
2023-11-15T07:10:16.518Z,8.50
2023-11-15T07:13:22.270Z,8.54
2023-11-15T07:16:24.928Z,8.56
2023-11-15T07:19:28.994Z,8.59
2023-11-15T07:22:31.527Z,8.62
2023-11-15T07:25:35.122Z,8.69
2023-11-15T07:28:42.779Z,8.99
2023-11-15T07:31:54.320Z,9.25
2023-11-15T07:34:57.342Z,9.53
2023-11-15T07:38:00.240Z,9.96
2023-11-15T07:41:03.030Z,10.12
2023-11-15T07:44:06.458Z,10.14
2023-11-15T07:47:08.731Z,10.23
2023-11-15T07:50:12.180Z,10.53
2023-11-15T07:53:14.731Z,10.70
2023-11-15T07:56:20.193Z,10.90
2023-11-15T07:59:23.041Z,10.92
2023-11-15T08:02:26.124Z,11.16
2023-11-15T08:05:28.977Z,11.31
2023-11-15T08:08:31.844Z,11.38
2023-11-15T08:11:38.097Z,11.52
2023-11-15T08:14:40.679Z,11.64
2023-11-15T08:17:44.558Z,11.78
2023-11-15T08:20:48.093Z,11.87
2023-11-15T08:23:51.100Z,11.92
2023-11-15T08:26:56.859Z,11.98
2023-11-15T08:30:01.142Z,11.99
2023-11-15T08:33:07.069Z,12.06
2023-11-15T08:36:10.426Z,12.08
2023-11-15T08:39:14.309Z,12.14
2023-11-15T08:42:17.459Z,12.26
2023-11-15T08:45:21.114Z,12.27
2023-11-15T08:48:24.462Z,12.30
2023-11-15T08:51:26.933Z,12.41
2023-11-15T08:54:29.653Z,12.39
2023-11-15T08:57:32.022Z,12.45
2023-11-15T09:00:34.727Z,12.55
2023-11-15T09:03:40.215Z,12.61
2023-11-15T09:06:43.075Z,12.71
2023-11-15T09:09:47.004Z,12.66
2023-11-15T09:12:50.525Z,12.67
2023-11-15T09:15:53.344Z,12.64
2023-11-15T09:19:00.752Z,12.70
2023-11-15T09:22:04.810Z,12.68
2023-11-15T09:25:12.633Z,12.66
2023-11-15T09:28:15.745Z,12.67
2023-11-15T09:31:18.701Z,12.67
2023-11-15T09:34:21.849Z,12.67
2023-11-15T09:37:24.741Z,12.57
2023-11-15T09:40:27.662Z,12.57
2023-11-15T09:43:30.566Z,12.46
2023-11-15T09:46:32.999Z,12.46
2023-11-15T09:49:36.720Z,12.35
2023-11-15T09:52:39.789Z,12.36
2023-11-15T09:55:43.241Z,12.26
2023-11-15T09:58:47.358Z,12.27
2023-11-15T10:01:50.619Z,12.21
2023-11-15T10:05:12.934Z,12.19
2023-11-15T10:08:20.856Z,12.12
2023-11-15T10:11:25.580Z,12.13
2023-11-15T10:14:30.803Z,12.15
2023-11-15T10:17:39.645Z,12.18
2023-11-15T10:20:42.936Z,12.13
2023-11-15T10:23:45.781Z,12.21
2023-11-15T10:26:48.355Z,12.21
2023-11-15T10:29:51.773Z,12.21
2023-11-15T10:33:04.811Z,12.25
2023-11-15T10:36:16.598Z,12.30
2023-11-15T10:39:19.657Z,12.39
2023-11-15T10:42:24.983Z,12.37
2023-11-15T10:45:32.061Z,12.41
2023-11-15T10:48:38.576Z,12.38
2023-11-15T10:51:42.267Z,12.33
2023-11-15T10:54:45.385Z,12.32
2023-11-15T10:57:50.044Z,12.40
2023-11-15T11:00:55.533Z,12.41
2023-11-15T11:03:59.406Z,12.45
2023-11-15T11:07:09.172Z,12.48
2023-11-15T11:10:16.109Z,12.44
2023-11-15T11:13:19.557Z,12.37
2023-11-15T11:19:43.676Z,12.39
2023-11-15T11:23:04.960Z,12.56
2023-11-15T11:26:28.518Z,12.73
2023-11-15T11:29:35.195Z,12.85
2023-11-15T11:32:39.973Z,12.82
2023-11-15T11:35:47.209Z,12.78
2023-11-15T11:38:52.112Z,12.72
2023-11-15T11:41:55.887Z,12.90
2023-11-15T11:44:58.803Z,13.20
2023-11-15T11:48:03.641Z,13.16
2023-11-15T11:51:07.386Z,13.21
2023-11-15T11:54:20.029Z,13.22
2023-11-15T11:57:23.769Z,13.20
2023-11-15T12:00:26.242Z,13.22
2023-11-15T12:03:29.467Z,13.11
2023-11-15T12:06:34.101Z,13.03
2023-11-15T12:09:41.200Z,13.11
2023-11-15T12:13:03.693Z,13.10
2023-11-15T12:16:14.641Z,13.09
2023-11-15T12:19:20.306Z,13.03
2023-11-15T12:22:23.222Z,12.89
2023-11-15T12:25:25.638Z,12.82
2023-11-15T12:28:31.944Z,12.83
2023-11-15T12:31:35.366Z,12.85
2023-11-15T12:34:38.447Z,12.94
2023-11-15T12:37:41.190Z,13.04
2023-11-15T12:40:45.724Z,13.13
2023-11-15T12:43:59.388Z,13.08
2023-11-15T12:47:02.116Z,12.96
2023-11-15T12:50:04.592Z,12.94
2023-11-15T12:53:08.634Z,13.00
2023-11-15T12:56:21.028Z,13.03
2023-11-15T12:59:32.637Z,13.07
2023-11-15T13:02:37.836Z,13.06
2023-11-15T13:05:40.855Z,13.24
2023-11-15T13:08:48.972Z,13.22
2023-11-15T13:11:53.572Z,13.20
2023-11-15T13:14:56.265Z,13.17
2023-11-15T13:17:59.562Z,13.14
2023-11-15T13:21:02.027Z,13.14
2023-11-15T13:24:04.771Z,13.16
2023-11-15T13:27:07.173Z,13.08
2023-11-15T13:30:10.057Z,13.00
2023-11-15T13:33:12.626Z,12.98
2023-11-15T13:36:19.594Z,13.01
2023-11-15T13:39:22.600Z,12.95
2023-11-15T13:42:25.463Z,12.86
2023-11-15T13:45:28.198Z,12.86
2023-11-15T13:48:31.242Z,12.85
2023-11-15T13:51:34.018Z,12.82
2023-11-15T13:54:36.744Z,12.82
2023-11-15T13:57:39.762Z,12.83
2023-11-15T14:00:42.565Z,12.85
2023-11-15T14:07:05.340Z,12.79
2023-11-15T14:10:08.894Z,12.85
2023-11-15T14:13:11.809Z,12.89
2023-11-15T14:16:15.056Z,12.90
2023-11-15T14:19:17.754Z,12.81
2023-11-15T14:22:21.226Z,12.78
2023-11-15T14:25:24.529Z,12.64
2023-11-15T14:28:27.375Z,12.61
2023-11-15T14:31:30.053Z,12.53
2023-11-15T14:34:32.866Z,12.44
2023-11-15T14:37:35.286Z,12.36
2023-11-15T14:40:39.989Z,12.34
2023-11-15T14:43:42.602Z,12.33
2023-11-15T14:46:45.980Z,12.30
2023-11-15T14:49:49.059Z,12.25
2023-11-15T14:52:57.084Z,12.17
2023-11-15T14:55:59.883Z,12.08
2023-11-15T14:59:02.831Z,12.01
2023-11-15T15:02:05.163Z,11.96
2023-11-15T15:05:09.996Z,11.93
2023-11-15T15:08:14.772Z,11.94
2023-11-15T15:11:17.391Z,11.98
2023-11-15T15:14:20.020Z,11.95
2023-11-15T15:17:25.668Z,11.90
2023-11-15T15:20:28.610Z,11.95
2023-11-15T15:23:31.755Z,11.98
2023-11-15T15:26:34.523Z,12.01
2023-11-15T15:29:37.091Z,12.00
2023-11-15T15:32:41.139Z,12.06
2023-11-15T15:35:44.058Z,12.05
2023-11-15T15:38:46.941Z,12.03
2023-11-15T15:41:50.625Z,12.08
2023-11-15T15:44:53.497Z,12.03
2023-11-15T15:47:56.831Z,12.12
2023-11-15T15:50:59.540Z,12.11
2023-11-15T15:54:02.190Z,12.15
2023-11-15T15:57:04.826Z,12.21
2023-11-15T16:00:08.484Z,12.22
2023-11-15T16:03:11.611Z,12.18
2023-11-15T16:06:14.726Z,12.23
2023-11-15T16:09:17.638Z,12.18
2023-11-15T16:12:20.348Z,12.18
2023-11-15T16:15:23.353Z,12.16
2023-11-15T16:18:25.923Z,12.20
2023-11-15T16:21:28.812Z,12.14
2023-11-15T16:24:31.135Z,12.11
2023-11-15T16:27:37.483Z,12.11
2023-11-15T16:30:40.414Z,12.12
2023-11-15T16:33:43.382Z,12.13
2023-11-15T16:36:48.289Z,12.13
2023-11-15T16:39:52.188Z,12.13
2023-11-15T16:42:54.890Z,12.14
2023-11-15T16:45:57.864Z,12.09
2023-11-15T16:49:00.276Z,12.03
2023-11-15T16:52:03.401Z,11.96
2023-11-15T16:55:06.756Z,11.98
2023-11-15T16:58:12.173Z,11.96
2023-11-15T17:01:14.914Z,11.97
2023-11-15T17:04:17.853Z,11.94
2023-11-15T17:07:20.522Z,11.85
2023-11-15T17:10:23.595Z,11.87
2023-11-15T17:13:28.694Z,11.87
2023-11-15T17:16:32.625Z,11.82
2023-11-15T17:19:35.286Z,11.79
2023-11-15T17:22:38.477Z,11.66
2023-11-15T17:25:41.018Z,11.59
2023-11-15T17:28:44.404Z,11.46
2023-11-15T17:31:46.754Z,11.46
2023-11-15T17:34:50.843Z,11.45
2023-11-15T17:37:55.302Z,11.41
2023-11-15T17:40:58.498Z,11.34
2023-11-15T17:44:04.003Z,11.24
2023-11-15T17:47:08.534Z,11.12
2023-11-15T17:50:11.180Z,11.04
2023-11-15T17:53:15.621Z,11.13
2023-11-15T17:56:18.060Z,11.14
2023-11-15T17:59:20.777Z,11.11
2023-11-15T18:02:23.395Z,11.05
2023-11-15T18:05:26.388Z,11.06
2023-11-15T18:08:29.057Z,10.96
2023-11-15T18:11:31.807Z,10.85
2023-11-15T18:14:34.296Z,10.79
2023-11-15T18:17:37.625Z,10.77
2023-11-15T18:20:43.983Z,10.73
2023-11-15T18:23:48.030Z,10.75
2023-11-15T18:26:50.982Z,10.76
2023-11-15T18:29:54.000Z,10.79
2023-11-15T18:32:57.325Z,10.73
2023-11-15T18:36:01.672Z,10.71
2023-11-15T18:39:04.904Z,10.70
2023-11-15T18:42:11.861Z,10.63
2023-11-15T18:45:15.946Z,10.57
2023-11-15T18:48:18.878Z,10.63
2023-11-15T18:51:25.607Z,10.57
2023-11-15T18:54:28.393Z,10.55
2023-11-15T18:57:31.988Z,10.60
2023-11-15T19:00:34.688Z,10.61
2023-11-15T19:03:37.135Z,10.62
2023-11-15T19:06:40.411Z,10.57
2023-11-15T19:09:44.683Z,10.55
2023-11-15T19:12:50.043Z,10.56
2023-11-15T19:15:52.672Z,10.49
2023-11-15T19:18:56.400Z,10.49
2023-11-15T19:21:58.808Z,10.57
2023-11-15T19:25:01.477Z,10.53
2023-11-15T19:28:05.888Z,10.49
2023-11-15T19:31:10.019Z,10.41
2023-11-15T19:34:14.696Z,10.27
2023-11-15T19:37:18.095Z,10.24
2023-11-15T19:40:20.904Z,10.19
2023-11-15T19:43:23.556Z,10.08
2023-11-15T19:46:25.982Z,10.03
2023-11-15T19:49:29.699Z,10.04
2023-11-15T19:52:32.066Z,10.02
2023-11-15T19:55:36.708Z,9.96
2023-11-15T19:58:39.192Z,9.83
2023-11-15T20:01:42.765Z,9.84
2023-11-15T20:04:45.461Z,9.79
2023-11-15T20:07:48.131Z,9.73
2023-11-15T20:10:52.625Z,9.70
2023-11-15T20:13:54.947Z,9.72
2023-11-15T20:16:59.112Z,9.73
2023-11-15T20:20:01.518Z,9.78
2023-11-15T20:23:04.438Z,9.75
2023-11-15T20:26:09.017Z,9.70
2023-11-15T20:29:12.244Z,9.64
2023-11-15T20:32:14.874Z,9.59
2023-11-15T20:35:17.590Z,9.55
2023-11-15T20:38:20.552Z,9.51
2023-11-15T20:41:23.108Z,9.60
2023-11-15T20:44:25.725Z,9.66
2023-11-15T20:47:28.790Z,9.78
2023-11-15T20:50:31.282Z,9.80
2023-11-15T20:53:34.180Z,9.87
2023-11-15T20:56:37.305Z,9.91
2023-11-15T20:59:40.395Z,9.96
2023-11-15T21:02:43.002Z,9.93
2023-11-15T21:05:47.920Z,9.99
2023-11-15T21:08:50.771Z,10.10
2023-11-15T21:11:56.300Z,10.13
2023-11-15T21:14:59.508Z,10.10
2023-11-15T21:18:03.867Z,9.96
2023-11-15T21:21:08.490Z,9.91
2023-11-15T21:24:11.326Z,9.98
2023-11-15T21:27:14.034Z,9.97
2023-11-15T21:30:19.118Z,9.83
2023-11-15T21:33:21.866Z,9.82
2023-11-15T21:36:24.817Z,9.82
2023-11-15T21:39:27.136Z,9.73
2023-11-15T21:42:29.901Z,9.74
2023-11-15T21:45:32.765Z,9.72
2023-11-15T21:48:36.126Z,9.62
2023-11-15T21:51:38.513Z,9.56
2023-11-15T21:54:41.145Z,9.52
2023-11-15T21:57:43.824Z,9.51
2023-11-15T22:00:47.320Z,9.49
2023-11-15T22:03:50.418Z,9.52
2023-11-15T22:06:59.418Z,9.52
2023-11-15T22:10:13.664Z,9.48
2023-11-15T22:13:16.658Z,9.36
2023-11-15T22:16:19.428Z,9.30
2023-11-15T22:19:22.014Z,9.18
2023-11-15T22:22:25.222Z,9.02
2023-11-15T22:25:27.759Z,9.02
2023-11-15T22:28:31.981Z,9.08
2023-11-15T22:31:34.877Z,9.08
2023-11-15T22:34:37.593Z,9.06
2023-11-15T22:37:39.973Z,9.10
2023-11-15T22:40:42.896Z,9.10
2023-11-15T22:43:45.422Z,9.12
2023-11-15T22:46:48.074Z,9.12
2023-11-15T22:49:51.171Z,9.11
2023-11-15T22:52:53.871Z,9.03
2023-11-15T22:55:56.523Z,8.96
2023-11-15T22:58:59.207Z,8.92
2023-11-15T23:02:01.763Z,8.89
2023-11-15T23:05:04.743Z,8.90
2023-11-15T23:08:07.919Z,8.97
2023-11-15T23:11:10.961Z,9.01
2023-11-15T23:14:14.059Z,9.07
2023-11-15T23:17:16.875Z,9.09
2023-11-15T23:20:19.620Z,9.07
2023-11-15T23:23:22.501Z,9.09
2023-11-15T23:26:28.986Z,9.11
2023-11-15T23:29:32.525Z,9.04
2023-11-15T23:32:35.424Z,8.84
2023-11-15T23:35:39.163Z,8.77
2023-11-15T23:38:41.687Z,8.71
2023-11-15T23:41:45.395Z,8.83
2023-11-15T23:44:48.293Z,8.77
2023-11-15T23:47:51.761Z,8.74
2023-11-15T23:50:57.318Z,8.66
2023-11-15T23:54:00.342Z,8.71
2023-11-15T23:57:04.220Z,8.65
